sensor_id;sensor_type;location;lat;lon;timestamp;temperature;humidity
67555;HTU21D;54385;53.516;49.456;2023-12-20T00:01:52;20.17;22.79
67555;HTU21D;54385;53.516;49.456;2023-12-20T00:04:18;20.16;22.79
67555;HTU21D;54385;53.516;49.456;2023-12-20T00:06:45;20.16;22.80
67555;HTU21D;54385;53.516;49.456;2023-12-20T00:09:11;20.15;22.80
67555;HTU21D;54385;53.516;49.456;2023-12-20T00:11:38;20.16;22.79
67555;HTU21D;54385;53.516;49.456;2023-12-20T00:14:04;20.16;22.81
67555;HTU21D;54385;53.516;49.456;2023-12-20T00:16:31;20.14;22.81
67555;HTU21D;54385;53.516;49.456;2023-12-20T00:18:57;20.15;22.80
67555;HTU21D;54385;53.516;49.456;2023-12-20T00:21:24;20.14;22.81
67555;HTU21D;54385;53.516;49.456;2023-12-20T00:23:50;20.12;22.82
67555;HTU21D;54385;53.516;49.456;2023-12-20T00:26:17;20.14;22.80
67555;HTU21D;54385;53.516;49.456;2023-12-20T00:28:43;20.14;22.80
67555;HTU21D;54385;53.516;49.456;2023-12-20T00:31:09;20.14;22.81
67555;HTU21D;54385;53.516;49.456;2023-12-20T00:33:36;20.14;22.79
67555;HTU21D;54385;53.516;49.456;2023-12-20T00:36:03;20.15;22.79
67555;HTU21D;54385;53.516;49.456;2023-12-20T00:38:29;20.15;22.79
67555;HTU21D;54385;53.516;49.456;2023-12-20T00:40:56;20.13;22.79
67555;HTU21D;54385;53.516;49.456;2023-12-20T00:43:22;20.14;22.79
67555;HTU21D;54385;53.516;49.456;2023-12-20T00:45:49;20.14;22.79
67555;HTU21D;54385;53.516;49.456;2023-12-20T00:48:15;20.14;22.80
67555;HTU21D;54385;53.516;49.456;2023-12-20T00:50:42;20.14;22.77
67555;HTU21D;54385;53.516;49.456;2023-12-20T00:53:08;20.15;22.77
67555;HTU21D;54385;53.516;49.456;2023-12-20T00:55:35;20.14;22.78
67555;HTU21D;54385;53.516;49.456;2023-12-20T00:58:01;20.13;22.79
67555;HTU21D;54385;53.516;49.456;2023-12-20T01:00:28;20.14;22.79
67555;HTU21D;54385;53.516;49.456;2023-12-20T01:02:54;20.14;22.79
67555;HTU21D;54385;53.516;49.456;2023-12-20T01:05:21;20.14;22.77
67555;HTU21D;54385;53.516;49.456;2023-12-20T01:07:50;20.14;22.77
67555;HTU21D;54385;53.516;49.456;2023-12-20T01:10:17;20.13;22.77
67555;HTU21D;54385;53.516;49.456;2023-12-20T01:12:44;20.14;22.75
67555;HTU21D;54385;53.516;49.456;2023-12-20T01:15:10;20.15;22.76
67555;HTU21D;54385;53.516;49.456;2023-12-20T01:17:37;20.14;22.75
67555;HTU21D;54385;53.516;49.456;2023-12-20T01:20:04;20.15;22.72
67555;HTU21D;54385;53.516;49.456;2023-12-20T01:22:32;20.16;22.73
67555;HTU21D;54385;53.516;49.456;2023-12-20T01:24:58;20.15;22.74
67555;HTU21D;54385;53.516;49.456;2023-12-20T01:27:24;20.15;22.75
67555;HTU21D;54385;53.516;49.456;2023-12-20T01:29:51;20.15;22.75
67555;HTU21D;54385;53.516;49.456;2023-12-20T01:32:17;20.15;22.76
67555;HTU21D;54385;53.516;49.456;2023-12-20T01:34:44;20.14;22.75
67555;HTU21D;54385;53.516;49.456;2023-12-20T01:37:10;20.15;22.74
67555;HTU21D;54385;53.516;49.456;2023-12-20T01:39:37;20.16;22.76
67555;HTU21D;54385;53.516;49.456;2023-12-20T01:42:04;20.15;22.72
67555;HTU21D;54385;53.516;49.456;2023-12-20T01:44:30;20.16;22.72
67555;HTU21D;54385;53.516;49.456;2023-12-20T01:46:57;20.16;22.72
67555;HTU21D;54385;53.516;49.456;2023-12-20T01:49:24;20.15;22.71
67555;HTU21D;54385;53.516;49.456;2023-12-20T01:51:50;20.14;22.72
67555;HTU21D;54385;53.516;49.456;2023-12-20T01:54:17;20.15;22.73
67555;HTU21D;54385;53.516;49.456;2023-12-20T01:56:45;20.15;22.75
67555;HTU21D;54385;53.516;49.456;2023-12-20T01:59:12;20.14;22.72
67555;HTU21D;54385;53.516;49.456;2023-12-20T02:01:39;20.14;22.74
67555;HTU21D;54385;53.516;49.456;2023-12-20T02:04:05;20.14;22.73
67555;HTU21D;54385;53.516;49.456;2023-12-20T02:06:33;20.13;22.75
67555;HTU21D;54385;53.516;49.456;2023-12-20T02:09:00;20.14;22.72
67555;HTU21D;54385;53.516;49.456;2023-12-20T02:11:26;20.15;22.72
67555;HTU21D;54385;53.516;49.456;2023-12-20T02:13:54;20.14;22.73
67555;HTU21D;54385;53.516;49.456;2023-12-20T02:16:21;20.14;22.75
67555;HTU21D;54385;53.516;49.456;2023-12-20T02:18:48;20.14;22.73
67555;HTU21D;54385;53.516;49.456;2023-12-20T02:21:15;20.15;22.73
67555;HTU21D;54385;53.516;49.456;2023-12-20T02:23:41;20.14;22.74
67555;HTU21D;54385;53.516;49.456;2023-12-20T02:26:08;20.13;22.73
67555;HTU21D;54385;53.516;49.456;2023-12-20T02:28:34;20.15;22.73
67555;HTU21D;54385;53.516;49.456;2023-12-20T02:31:01;20.14;22.74
67555;HTU21D;54385;53.516;49.456;2023-12-20T02:33:28;20.14;22.73
67555;HTU21D;54385;53.516;49.456;2023-12-20T02:35:58;20.13;22.76
67555;HTU21D;54385;53.516;49.456;2023-12-20T02:38:24;20.14;22.76
67555;HTU21D;54385;53.516;49.456;2023-12-20T02:40:50;20.14;22.75
67555;HTU21D;54385;53.516;49.456;2023-12-20T02:43:17;20.14;22.74
67555;HTU21D;54385;53.516;49.456;2023-12-20T02:45:43;20.12;22.76
67555;HTU21D;54385;53.516;49.456;2023-12-20T02:48:10;20.14;22.76
67555;HTU21D;54385;53.516;49.456;2023-12-20T02:50:36;20.13;22.77
67555;HTU21D;54385;53.516;49.456;2023-12-20T02:53:03;20.15;22.76
67555;HTU21D;54385;53.516;49.456;2023-12-20T02:55:31;20.14;22.76
67555;HTU21D;54385;53.516;49.456;2023-12-20T02:57:58;20.13;22.76
67555;HTU21D;54385;53.516;49.456;2023-12-20T03:00:24;20.14;22.76
67555;HTU21D;54385;53.516;49.456;2023-12-20T03:02:51;20.15;22.76
67555;HTU21D;54385;53.516;49.456;2023-12-20T03:05:18;20.16;22.74
67555;HTU21D;54385;53.516;49.456;2023-12-20T03:07:44;20.15;22.74
67555;HTU21D;54385;53.516;49.456;2023-12-20T03:10:11;20.14;22.76
67555;HTU21D;54385;53.516;49.456;2023-12-20T03:12:38;20.15;22.76
67555;HTU21D;54385;53.516;49.456;2023-12-20T03:15:13;20.14;22.82
67555;HTU21D;54385;53.516;49.456;2023-12-20T03:17:43;20.17;23.56
67555;HTU21D;54385;53.516;49.456;2023-12-20T03:20:09;20.21;23.82
67555;HTU21D;54385;53.516;49.456;2023-12-20T03:22:36;20.24;24.27
67555;HTU21D;54385;53.516;49.456;2023-12-20T03:25:02;20.27;24.78
67555;HTU21D;54385;53.516;49.456;2023-12-20T03:27:29;20.29;25.06
67555;HTU21D;54385;53.516;49.456;2023-12-20T03:29:56;20.30;25.34
67555;HTU21D;54385;53.516;49.456;2023-12-20T03:32:28;20.33;25.54
67555;HTU21D;54385;53.516;49.456;2023-12-20T03:35:01;20.35;25.94
67555;HTU21D;54385;53.516;49.456;2023-12-20T03:37:28;20.36;25.78
67555;HTU21D;54385;53.516;49.456;2023-12-20T03:39:54;20.37;25.91
67555;HTU21D;54385;53.516;49.456;2023-12-20T03:42:29;20.37;26.30
67555;HTU21D;54385;53.516;49.456;2023-12-20T03:44:55;20.40;26.20
67555;HTU21D;54385;53.516;49.456;2023-12-20T03:47:22;20.41;26.71
67555;HTU21D;54385;53.516;49.456;2023-12-20T03:49:48;20.43;27.29
67555;HTU21D;54385;53.516;49.456;2023-12-20T03:52:15;20.44;27.78
67555;HTU21D;54385;53.516;49.456;2023-12-20T03:54:41;20.45;28.08
67555;HTU21D;54385;53.516;49.456;2023-12-20T03:57:11;20.48;28.50
67555;HTU21D;54385;53.516;49.456;2023-12-20T03:59:41;20.49;28.78
67555;HTU21D;54385;53.516;49.456;2023-12-20T04:02:07;20.50;29.06
67555;HTU21D;54385;53.516;49.456;2023-12-20T04:04:34;20.53;29.04
67555;HTU21D;54385;53.516;49.456;2023-12-20T04:07:04;20.53;29.04
67555;HTU21D;54385;53.516;49.456;2023-12-20T04:09:30;20.54;29.39
67555;HTU21D;54385;53.516;49.456;2023-12-20T04:11:57;20.55;29.61
67555;HTU21D;54385;53.516;49.456;2023-12-20T04:14:23;20.58;29.89
67555;HTU21D;54385;53.516;49.456;2023-12-20T04:16:54;20.61;30.36
67555;HTU21D;54385;53.516;49.456;2023-12-20T04:19:23;20.63;30.19
67555;HTU21D;54385;53.516;49.456;2023-12-20T04:21:50;20.65;30.15
67555;HTU21D;54385;53.516;49.456;2023-12-20T04:24:19;20.66;30.24
67555;HTU21D;54385;53.516;49.456;2023-12-20T04:26:46;20.66;30.26
67555;HTU21D;54385;53.516;49.456;2023-12-20T04:29:13;20.68;30.23
67555;HTU21D;54385;53.516;49.456;2023-12-20T04:31:39;20.69;30.22
67555;HTU21D;54385;53.516;49.456;2023-12-20T04:34:06;20.69;30.15
67555;HTU21D;54385;53.516;49.456;2023-12-20T04:36:32;20.70;30.12
67555;HTU21D;54385;53.516;49.456;2023-12-20T04:38:59;20.71;30.10
67555;HTU21D;54385;53.516;49.456;2023-12-20T04:41:25;20.69;30.03
67555;HTU21D;54385;53.516;49.456;2023-12-20T04:43:53;20.70;30.09
67555;HTU21D;54385;53.516;49.456;2023-12-20T04:46:20;20.72;30.17
67555;HTU21D;54385;53.516;49.456;2023-12-20T04:48:46;20.73;30.13
67555;HTU21D;54385;53.516;49.456;2023-12-20T04:51:13;20.74;30.09
67555;HTU21D;54385;53.516;49.456;2023-12-20T04:53:39;20.76;30.24
67555;HTU21D;54385;53.516;49.456;2023-12-20T04:56:06;20.77;30.32
67555;HTU21D;54385;53.516;49.456;2023-12-20T04:58:32;20.78;30.27
67555;HTU21D;54385;53.516;49.456;2023-12-20T05:00:59;20.79;30.20
67555;HTU21D;54385;53.516;49.456;2023-12-20T05:03:27;20.79;30.14
67555;HTU21D;54385;53.516;49.456;2023-12-20T05:05:54;20.78;30.00
67555;HTU21D;54385;53.516;49.456;2023-12-20T05:08:21;20.77;29.90
67555;HTU21D;54385;53.516;49.456;2023-12-20T05:10:48;20.78;29.77
67555;HTU21D;54385;53.516;49.456;2023-12-20T05:13:14;20.77;29.66
67555;HTU21D;54385;53.516;49.456;2023-12-20T05:15:41;20.79;29.52
67555;HTU21D;54385;53.516;49.456;2023-12-20T05:18:08;20.78;29.44
67555;HTU21D;54385;53.516;49.456;2023-12-20T05:20:35;20.79;29.31
67555;HTU21D;54385;53.516;49.456;2023-12-20T05:23:01;20.79;29.17
67555;HTU21D;54385;53.516;49.456;2023-12-20T05:25:28;20.79;29.06
67555;HTU21D;54385;53.516;49.456;2023-12-20T05:27:54;20.78;28.98
67555;HTU21D;54385;53.516;49.456;2023-12-20T05:30:22;20.79;28.87
67555;HTU21D;54385;53.516;49.456;2023-12-20T05:32:51;20.80;28.76
67555;HTU21D;54385;53.516;49.456;2023-12-20T05:35:18;20.80;28.65
67555;HTU21D;54385;53.516;49.456;2023-12-20T05:37:45;20.80;28.54
67555;HTU21D;54385;53.516;49.456;2023-12-20T05:40:11;20.83;28.42
67555;HTU21D;54385;53.516;49.456;2023-12-20T05:42:38;20.83;28.34
67555;HTU21D;54385;53.516;49.456;2023-12-20T05:45:05;20.83;28.26
67555;HTU21D;54385;53.516;49.456;2023-12-20T05:47:35;20.85;28.18
67555;HTU21D;54385;53.516;49.456;2023-12-20T05:50:04;20.85;28.07
67555;HTU21D;54385;53.516;49.456;2023-12-20T05:52:35;20.86;28.03
67555;HTU21D;54385;53.516;49.456;2023-12-20T05:55:05;20.87;27.94
67555;HTU21D;54385;53.516;49.456;2023-12-20T05:57:32;20.87;27.87
67555;HTU21D;54385;53.516;49.456;2023-12-20T05:59:58;20.87;27.80
67555;HTU21D;54385;53.516;49.456;2023-12-20T06:02:34;20.88;27.71
67555;HTU21D;54385;53.516;49.456;2023-12-20T06:05:08;20.88;27.63
67555;HTU21D;54385;53.516;49.456;2023-12-20T06:08:32;20.86;27.63
67555;HTU21D;54385;53.516;49.456;2023-12-20T06:10:41;20.87;27.55
67555;HTU21D;54385;53.516;49.456;2023-12-20T06:13:10;20.88;27.47
67555;HTU21D;54385;53.516;49.456;2023-12-20T06:15:41;20.89;27.41
67555;HTU21D;54385;53.516;49.456;2023-12-20T06:18:10;20.90;27.33
67555;HTU21D;54385;53.516;49.456;2023-12-20T06:20:39;20.93;27.23
67555;HTU21D;54385;53.516;49.456;2023-12-20T06:23:12;20.94;27.15
67555;HTU21D;54385;53.516;49.456;2023-12-20T06:25:39;20.98;27.20
67555;HTU21D;54385;53.516;49.456;2023-12-20T06:28:16;21.03;27.10
67555;HTU21D;54385;53.516;49.456;2023-12-20T06:30:43;21.03;27.10
67555;HTU21D;54385;53.516;49.456;2023-12-20T06:33:09;21.07;27.13
67555;HTU21D;54385;53.516;49.456;2023-12-20T06:35:37;21.08;27.18
67555;HTU21D;54385;53.516;49.456;2023-12-20T06:38:04;21.11;27.24
67555;HTU21D;54385;53.516;49.456;2023-12-20T06:40:30;21.14;27.30
67555;HTU21D;54385;53.516;49.456;2023-12-20T06:42:57;21.15;27.32
67555;HTU21D;54385;53.516;49.456;2023-12-20T06:45:25;21.17;27.37
67555;HTU21D;54385;53.516;49.456;2023-12-20T06:47:57;21.16;27.39
67555;HTU21D;54385;53.516;49.456;2023-12-20T06:50:29;21.16;27.49
67555;HTU21D;54385;53.516;49.456;2023-12-20T06:53:05;21.17;27.51
67555;HTU21D;54385;53.516;49.456;2023-12-20T06:55:35;21.16;27.49
67555;HTU21D;54385;53.516;49.456;2023-12-20T06:58:02;21.17;27.49
67555;HTU21D;54385;53.516;49.456;2023-12-20T07:00:30;21.17;27.52
67555;HTU21D;54385;53.516;49.456;2023-12-20T07:03:02;21.19;27.58
67555;HTU21D;54385;53.516;49.456;2023-12-20T07:05:29;21.18;27.57
67555;HTU21D;54385;53.516;49.456;2023-12-20T07:07:57;21.21;27.57
67555;HTU21D;54385;53.516;49.456;2023-12-20T07:10:33;21.22;27.57
67555;HTU21D;54385;53.516;49.456;2023-12-20T07:13:00;21.24;27.55
67555;HTU21D;54385;53.516;49.456;2023-12-20T07:15:27;21.29;27.52
67555;HTU21D;54385;53.516;49.456;2023-12-20T07:17:58;21.32;27.53
67555;HTU21D;54385;53.516;49.456;2023-12-20T07:20:26;21.38;27.43
67555;HTU21D;54385;53.516;49.456;2023-12-20T07:23:01;21.39;27.38
67555;HTU21D;54385;53.516;49.456;2023-12-20T07:25:28;21.44;27.30
67555;HTU21D;54385;53.516;49.456;2023-12-20T07:27:54;21.46;27.26
67555;HTU21D;54385;53.516;49.456;2023-12-20T07:30:21;21.47;27.25
67555;HTU21D;54385;53.516;49.456;2023-12-20T07:32:48;21.49;27.21
67555;HTU21D;54385;53.516;49.456;2023-12-20T07:35:24;21.50;27.20
67555;HTU21D;54385;53.516;49.456;2023-12-20T07:37:53;21.48;27.20
67555;HTU21D;54385;53.516;49.456;2023-12-20T07:40:20;21.49;27.18
67555;HTU21D;54385;53.516;49.456;2023-12-20T07:42:47;21.49;27.17
67555;HTU21D;54385;53.516;49.456;2023-12-20T07:45:14;21.53;27.15
67555;HTU21D;54385;53.516;49.456;2023-12-20T07:47:44;21.52;27.16
67555;HTU21D;54385;53.516;49.456;2023-12-20T07:50:10;21.54;27.16
67555;HTU21D;54385;53.516;49.456;2023-12-20T07:52:37;21.57;27.21
67555;HTU21D;54385;53.516;49.456;2023-12-20T08:02:48;21.61;27.49
67555;HTU21D;54385;53.516;49.456;2023-12-20T08:05:33;21.64;27.34
67555;HTU21D;54385;53.516;49.456;2023-12-20T08:08:00;21.68;27.33
67555;HTU21D;54385;53.516;49.456;2023-12-20T08:10:30;21.73;27.32
67555;HTU21D;54385;53.516;49.456;2023-12-20T08:13:35;21.80;27.55
67555;HTU21D;54385;53.516;49.456;2023-12-20T08:16:05;21.88;27.41
67555;HTU21D;54385;53.516;49.456;2023-12-20T08:19:06;22.01;27.54
67555;HTU21D;54385;53.516;49.456;2023-12-20T08:21:40;22.09;27.48
67555;HTU21D;54385;53.516;49.456;2023-12-20T08:24:11;22.18;28.00
67555;HTU21D;54385;53.516;49.456;2023-12-20T08:26:56;22.26;28.51
67555;HTU21D;54385;53.516;49.456;2023-12-20T08:29:22;22.37;28.68
67555;HTU21D;54385;53.516;49.456;2023-12-20T08:31:53;22.46;29.12
67555;HTU21D;54385;53.516;49.456;2023-12-20T08:34:23;22.49;28.94
67555;HTU21D;54385;53.516;49.456;2023-12-20T08:36:51;22.50;28.97
67555;HTU21D;54385;53.516;49.456;2023-12-20T08:39:17;22.51;29.13
67555;HTU21D;54385;53.516;49.456;2023-12-20T08:41:44;22.50;29.11
67555;HTU21D;54385;53.516;49.456;2023-12-20T08:44:30;22.49;29.20
67555;HTU21D;54385;53.516;49.456;2023-12-20T08:47:22;22.42;29.19
67555;HTU21D;54385;53.516;49.456;2023-12-20T08:50:31;22.39;29.10
67555;HTU21D;54385;53.516;49.456;2023-12-20T08:53:40;22.40;29.32
67555;HTU21D;54385;53.516;49.456;2023-12-20T08:56:22;22.38;29.10
67555;HTU21D;54385;53.516;49.456;2023-12-20T08:58:56;22.37;29.04
67555;HTU21D;54385;53.516;49.456;2023-12-20T09:01:23;22.34;29.16
67555;HTU21D;54385;53.516;49.456;2023-12-20T09:04:01;22.31;28.99
67555;HTU21D;54385;53.516;49.456;2023-12-20T09:07:00;22.34;28.86
67555;HTU21D;54385;53.516;49.456;2023-12-20T09:10:11;22.39;28.59
67555;HTU21D;54385;53.516;49.456;2023-12-20T09:13:01;22.44;28.48
67555;HTU21D;54385;53.516;49.456;2023-12-20T09:16:13;22.48;28.33
67555;HTU21D;54385;53.516;49.456;2023-12-20T09:19:11;22.47;28.24
67555;HTU21D;54385;53.516;49.456;2023-12-20T09:22:34;22.46;28.26
67555;HTU21D;54385;53.516;49.456;2023-12-20T09:25:13;22.47;28.16
67555;HTU21D;54385;53.516;49.456;2023-12-20T09:27:49;22.47;28.00
67555;HTU21D;54385;53.516;49.456;2023-12-20T09:30:31;22.47;28.16
67555;HTU21D;54385;53.516;49.456;2023-12-20T09:33:36;22.40;28.18
67555;HTU21D;54385;53.516;49.456;2023-12-20T09:39:48;22.24;28.42
67555;HTU21D;54385;53.516;49.456;2023-12-20T09:47:04;22.13;29.12
67555;HTU21D;54385;53.516;49.456;2023-12-20T09:49:37;22.08;28.93
67555;HTU21D;54385;53.516;49.456;2023-12-20T09:52:29;22.03;29.13
67555;HTU21D;54385;53.516;49.456;2023-12-20T09:54:57;21.99;29.17
67555;HTU21D;54385;53.516;49.456;2023-12-20T09:57:39;21.97;29.16
67555;HTU21D;54385;53.516;49.456;2023-12-20T10:03:25;21.94;29.30
67555;HTU21D;54385;53.516;49.456;2023-12-20T10:06:24;21.91;29.21
67555;HTU21D;54385;53.516;49.456;2023-12-20T10:09:24;21.89;29.14
67555;HTU21D;54385;53.516;49.456;2023-12-20T10:11:57;21.87;29.43
67555;HTU21D;54385;53.516;49.456;2023-12-20T10:14:44;21.84;29.71
67555;HTU21D;54385;53.516;49.456;2023-12-20T10:17:24;21.82;29.70
67555;HTU21D;54385;53.516;49.456;2023-12-20T10:20:04;21.81;29.89
67555;HTU21D;54385;53.516;49.456;2023-12-20T10:22:42;21.80;29.68
67555;HTU21D;54385;53.516;49.456;2023-12-20T10:25:24;21.76;29.66
67555;HTU21D;54385;53.516;49.456;2023-12-20T10:28:21;21.74;29.66
67555;HTU21D;54385;53.516;49.456;2023-12-20T10:31:01;21.70;29.52
67555;HTU21D;54385;53.516;49.456;2023-12-20T10:45:10;21.73;35.34
67555;HTU21D;54385;53.516;49.456;2023-12-20T10:48:18;21.70;34.47
67555;HTU21D;54385;53.516;49.456;2023-12-20T10:51:01;21.69;33.82
67555;HTU21D;54385;53.516;49.456;2023-12-20T10:53:49;21.68;33.62
67555;HTU21D;54385;53.516;49.456;2023-12-20T10:56:31;21.69;33.72
67555;HTU21D;54385;53.516;49.456;2023-12-20T10:59:11;21.67;33.35
67555;HTU21D;54385;53.516;49.456;2023-12-20T11:01:56;21.69;33.12
67555;HTU21D;54385;53.516;49.456;2023-12-20T11:05:06;21.66;33.10
67555;HTU21D;54385;53.516;49.456;2023-12-20T11:08:12;21.66;33.08
67555;HTU21D;54385;53.516;49.456;2023-12-20T11:14:31;21.69;32.43
67555;HTU21D;54385;53.516;49.456;2023-12-20T11:17:27;21.72;32.06
67555;HTU21D;54385;53.516;49.456;2023-12-20T11:20:39;21.72;31.89
67555;HTU21D;54385;53.516;49.456;2023-12-20T11:27:40;21.65;31.58
67555;HTU21D;54385;53.516;49.456;2023-12-20T11:30:48;21.64;31.48
67555;HTU21D;54385;53.516;49.456;2023-12-20T11:36:55;21.59;31.34
67555;HTU21D;54385;53.516;49.456;2023-12-20T11:40:04;21.54;31.28
67555;HTU21D;54385;53.516;49.456;2023-12-20T11:47:37;21.52;31.05
67555;HTU21D;54385;53.516;49.456;2023-12-20T11:50:33;21.52;30.96
67555;HTU21D;54385;53.516;49.456;2023-12-20T11:53:39;21.49;30.93
67555;HTU21D;54385;53.516;49.456;2023-12-20T11:56:27;21.46;30.84
67555;HTU21D;54385;53.516;49.456;2023-12-20T12:06:52;21.42;30.63
67555;HTU21D;54385;53.516;49.456;2023-12-20T12:17:21;21.34;30.50
67555;HTU21D;54385;53.516;49.456;2023-12-20T12:20:38;21.34;30.40
67555;HTU21D;54385;53.516;49.456;2023-12-20T12:24:12;21.33;30.38
67555;HTU21D;54385;53.516;49.456;2023-12-20T12:31:41;21.31;30.25
67555;HTU21D;54385;53.516;49.456;2023-12-20T12:38:46;21.29;30.13
67555;HTU21D;54385;53.516;49.456;2023-12-20T12:42:05;21.28;30.06
67555;HTU21D;54385;53.516;49.456;2023-12-20T12:45:14;21.27;30.05
67555;HTU21D;54385;53.516;49.456;2023-12-20T12:48:19;21.25;29.97
67555;HTU21D;54385;53.516;49.456;2023-12-20T12:50:54;21.24;29.97
67555;HTU21D;54385;53.516;49.456;2023-12-20T12:53:47;21.24;29.93
67555;HTU21D;54385;53.516;49.456;2023-12-20T12:56:57;21.23;29.84
67555;HTU21D;54385;53.516;49.456;2023-12-20T12:59:53;21.22;29.80
67555;HTU21D;54385;53.516;49.456;2023-12-20T13:06:24;21.23;29.68
67555;HTU21D;54385;53.516;49.456;2023-12-20T13:09:14;21.22;29.69
67555;HTU21D;54385;53.516;49.456;2023-12-20T13:11:55;21.23;29.61
67555;HTU21D;54385;53.516;49.456;2023-12-20T13:14:52;21.22;29.58
67555;HTU21D;54385;53.516;49.456;2023-12-20T13:20:33;21.21;29.52
67555;HTU21D;54385;53.516;49.456;2023-12-20T13:23:23;21.21;29.41
67555;HTU21D;54385;53.516;49.456;2023-12-20T13:26:05;21.20;29.41
67555;HTU21D;54385;53.516;49.456;2023-12-20T13:29:09;21.19;29.32
67555;HTU21D;54385;53.516;49.456;2023-12-20T13:32:20;21.18;29.35
67555;HTU21D;54385;53.516;49.456;2023-12-20T13:35:41;21.17;29.25
67555;HTU21D;54385;53.516;49.456;2023-12-20T13:38:43;21.16;29.25
67555;HTU21D;54385;53.516;49.456;2023-12-20T13:41:16;21.16;29.24
67555;HTU21D;54385;53.516;49.456;2023-12-20T13:43:43;21.17;29.18
67555;HTU21D;54385;53.516;49.456;2023-12-20T13:46:18;21.14;29.16
67555;HTU21D;54385;53.516;49.456;2023-12-20T13:49:08;21.15;29.11
67555;HTU21D;54385;53.516;49.456;2023-12-20T13:51:41;21.13;29.10
67555;HTU21D;54385;53.516;49.456;2023-12-20T13:54:40;21.14;29.01
67555;HTU21D;54385;53.516;49.456;2023-12-20T13:57:27;21.13;29.05
67555;HTU21D;54385;53.516;49.456;2023-12-20T14:01:04;21.13;28.94
67555;HTU21D;54385;53.516;49.456;2023-12-20T14:03:58;21.11;28.88
67555;HTU21D;54385;53.516;49.456;2023-12-20T14:06:26;21.10;28.91
67555;HTU21D;54385;53.516;49.456;2023-12-20T14:09:19;21.13;28.89
67555;HTU21D;54385;53.516;49.456;2023-12-20T14:11:52;21.13;28.82
67555;HTU21D;54385;53.516;49.456;2023-12-20T14:14:32;21.11;28.81
67555;HTU21D;54385;53.516;49.456;2023-12-20T14:17:02;21.10;28.80
67555;HTU21D;54385;53.516;49.456;2023-12-20T14:19:37;21.10;28.73
67555;HTU21D;54385;53.516;49.456;2023-12-20T14:22:17;21.11;28.72
67555;HTU21D;54385;53.516;49.456;2023-12-20T14:24:45;21.10;28.68
67555;HTU21D;54385;53.516;49.456;2023-12-20T14:27:13;21.10;28.67
67555;HTU21D;54385;53.516;49.456;2023-12-20T14:30:15;21.11;28.62
67555;HTU21D;54385;53.516;49.456;2023-12-20T14:33:15;21.10;28.61
67555;HTU21D;54385;53.516;49.456;2023-12-20T14:35:48;21.14;28.60
67555;HTU21D;54385;53.516;49.456;2023-12-20T14:38:15;21.13;28.56
67555;HTU21D;54385;53.516;49.456;2023-12-20T14:40:57;21.10;28.48
67555;HTU21D;54385;53.516;49.456;2023-12-20T14:43:32;21.13;28.49
67555;HTU21D;54385;53.516;49.456;2023-12-20T14:45:58;21.09;28.47
67555;HTU21D;54385;53.516;49.456;2023-12-20T14:48:35;21.11;28.37
67555;HTU21D;54385;53.516;49.456;2023-12-20T14:51:02;21.10;28.41
67555;HTU21D;54385;53.516;49.456;2023-12-20T14:53:49;21.13;28.38
67555;HTU21D;54385;53.516;49.456;2023-12-20T14:56:19;21.10;28.32
67555;HTU21D;54385;53.516;49.456;2023-12-20T14:58:52;21.10;28.32
67555;HTU21D;54385;53.516;49.456;2023-12-20T15:01:29;21.10;28.30
67555;HTU21D;54385;53.516;49.456;2023-12-20T15:04:04;21.10;28.25
67555;HTU21D;54385;53.516;49.456;2023-12-20T15:06:43;21.11;28.26
67555;HTU21D;54385;53.516;49.456;2023-12-20T15:09:19;21.09;28.23
67555;HTU21D;54385;53.516;49.456;2023-12-20T15:11:47;21.11;28.20
67555;HTU21D;54385;53.516;49.456;2023-12-20T15:14:16;21.09;28.20
67555;HTU21D;54385;53.516;49.456;2023-12-20T15:16:51;21.13;28.16
67555;HTU21D;54385;53.516;49.456;2023-12-20T15:19:18;21.10;28.14
67555;HTU21D;54385;53.516;49.456;2023-12-20T15:21:44;21.09;28.13
67555;HTU21D;54385;53.516;49.456;2023-12-20T15:24:18;21.10;28.11
67555;HTU21D;54385;53.516;49.456;2023-12-20T15:26:54;21.10;28.09
67555;HTU21D;54385;53.516;49.456;2023-12-20T15:29:22;21.11;28.07
67555;HTU21D;54385;53.516;49.456;2023-12-20T15:31:54;21.11;28.02
67555;HTU21D;54385;53.516;49.456;2023-12-20T15:34:23;21.11;28.02
67555;HTU21D;54385;53.516;49.456;2023-12-20T15:36:52;21.10;27.97
67555;HTU21D;54385;53.516;49.456;2023-12-20T15:39:28;21.10;27.97
67555;HTU21D;54385;53.516;49.456;2023-12-20T15:42:25;21.10;27.97
67555;HTU21D;54385;53.516;49.456;2023-12-20T15:45:06;21.10;27.94
67555;HTU21D;54385;53.516;49.456;2023-12-20T15:47:34;21.10;27.91
67555;HTU21D;54385;53.516;49.456;2023-12-20T15:50:06;21.10;27.91
67555;HTU21D;54385;53.516;49.456;2023-12-20T15:52:34;21.08;27.94
67555;HTU21D;54385;53.516;49.456;2023-12-20T15:55:03;21.08;27.90
67555;HTU21D;54385;53.516;49.456;2023-12-20T15:57:30;21.08;27.89
67555;HTU21D;54385;53.516;49.456;2023-12-20T16:00:00;21.08;27.87
67555;HTU21D;54385;53.516;49.456;2023-12-20T16:02:27;21.07;27.86
67555;HTU21D;54385;53.516;49.456;2023-12-20T16:04:57;21.07;27.81
67555;HTU21D;54385;53.516;49.456;2023-12-20T16:07:24;21.06;27.83
67555;HTU21D;54385;53.516;49.456;2023-12-20T16:09:51;21.06;27.81
67555;HTU21D;54385;53.516;49.456;2023-12-20T16:12:20;21.06;27.80
67555;HTU21D;54385;53.516;49.456;2023-12-20T16:14:47;21.05;27.78
67555;HTU21D;54385;53.516;49.456;2023-12-20T16:17:14;21.05;27.76
67555;HTU21D;54385;53.516;49.456;2023-12-20T16:19:50;21.05;27.74
67555;HTU21D;54385;53.516;49.456;2023-12-20T16:22:17;21.05;27.71
67555;HTU21D;54385;53.516;49.456;2023-12-20T16:24:44;21.06;27.71
67555;HTU21D;54385;53.516;49.456;2023-12-20T16:27:11;21.05;27.68
67555;HTU21D;54385;53.516;49.456;2023-12-20T16:29:37;21.06;27.65
67555;HTU21D;54385;53.516;49.456;2023-12-20T16:32:04;21.05;27.62
67555;HTU21D;54385;53.516;49.456;2023-12-20T16:34:34;21.06;27.63
67555;HTU21D;54385;53.516;49.456;2023-12-20T16:37:01;21.04;27.62
67555;HTU21D;54385;53.516;49.456;2023-12-20T16:39:28;21.05;27.62
67555;HTU21D;54385;53.516;49.456;2023-12-20T16:41:57;21.04;27.61
67555;HTU21D;54385;53.516;49.456;2023-12-20T16:44:24;21.05;27.57
67555;HTU21D;54385;53.516;49.456;2023-12-20T16:47:00;21.04;27.55
67555;HTU21D;54385;53.516;49.456;2023-12-20T16:49:27;21.04;27.55
67555;HTU21D;54385;53.516;49.456;2023-12-20T16:51:56;21.04;27.53
67555;HTU21D;54385;53.516;49.456;2023-12-20T16:54:22;21.05;27.51
67555;HTU21D;54385;53.516;49.456;2023-12-20T16:56:49;21.04;27.50
67555;HTU21D;54385;53.516;49.456;2023-12-20T16:59:18;21.05;27.49
67555;HTU21D;54385;53.516;49.456;2023-12-20T17:01:44;21.04;27.47
67555;HTU21D;54385;53.516;49.456;2023-12-20T17:04:12;21.04;27.47
67555;HTU21D;54385;53.516;49.456;2023-12-20T17:06:46;21.04;27.42